createdAt,value
2018-10-05T00:02:16.991Z,12.97
2018-10-05T00:22:07.962Z,12.13
2018-10-05T00:24:36.444Z,12.50
2018-10-05T00:27:05.083Z,12.10
2018-10-05T00:46:54.450Z,12.83
2018-10-05T00:49:23.068Z,13.63
2018-10-05T00:51:51.583Z,13.63
2018-10-05T00:54:21.260Z,13.17
2018-10-05T00:56:49.842Z,12.97
2018-10-05T01:16:40.391Z,15.10
2018-10-05T01:19:08.977Z,13.50
2018-10-05T01:21:37.519Z,13.73
2018-10-05T01:24:06.568Z,15.70
2018-10-05T01:26:34.987Z,14.03
2018-10-05T01:29:03.946Z,16.50
2018-10-05T01:48:54.122Z,13.20
2018-10-05T01:51:30.441Z,13.07
2018-10-05T01:53:59.245Z,13.33
2018-10-05T01:56:27.714Z,14.00
2018-10-05T01:58:56.722Z,13.27
2018-10-05T02:01:25.572Z,13.60
2018-10-05T02:03:55.313Z,12.80
2018-10-05T02:06:24.468Z,13.43
2018-10-05T02:08:53.304Z,13.17
2018-10-05T02:11:21.898Z,14.90
2018-10-05T02:13:50.990Z,15.00
2018-10-05T02:16:19.629Z,15.00
2018-10-05T02:18:48.309Z,14.53
2018-10-05T02:21:16.840Z,15.50
2018-10-05T02:23:45.560Z,15.47
2018-10-05T02:26:14.122Z,14.33
2018-10-05T02:28:42.780Z,14.07
2018-10-05T02:31:11.573Z,14.70
2018-10-05T02:33:40.990Z,15.47
2018-10-05T02:36:10.157Z,14.57
2018-10-05T02:38:39.196Z,14.87
2018-10-05T02:41:07.775Z,13.30
2018-10-05T02:43:37.024Z,14.03
2018-10-05T02:46:05.685Z,14.63
2018-10-05T02:48:34.191Z,13.57
2018-10-05T02:51:03.382Z,15.50
2018-10-05T03:10:55.246Z,15.40
2018-10-05T03:13:23.727Z,15.53
2018-10-05T03:15:52.239Z,16.77
2018-10-05T03:18:21.139Z,15.87
2018-10-05T03:20:49.631Z,15.87
2018-10-05T03:23:18.958Z,15.73
2018-10-05T03:25:47.890Z,15.40
2018-10-05T03:45:37.623Z,15.73
2018-10-05T03:48:06.314Z,13.93
2018-10-05T03:50:34.850Z,14.63
2018-10-05T04:10:24.830Z,12.87
2018-10-05T04:12:53.307Z,13.60
2018-10-05T04:15:21.875Z,13.77
2018-10-05T04:17:51.978Z,14.20
2018-10-05T04:20:20.388Z,15.70
2018-10-05T04:22:50.005Z,14.47
2018-10-05T04:25:19.525Z,13.97
2018-10-05T04:45:08.935Z,13.50
2018-10-05T04:47:37.614Z,14.43
2018-10-05T04:50:06.094Z,14.07
2018-10-05T04:52:34.619Z,14.57
2018-10-05T04:55:03.137Z,13.77
2018-10-05T04:57:31.644Z,14.20
2018-10-05T05:00:01.411Z,13.27
2018-10-05T05:02:30.082Z,12.97
2018-10-05T05:22:19.694Z,13.33
2018-10-05T05:42:09.838Z,13.80
2018-10-05T06:01:59.805Z,14.50
2018-10-05T06:04:28.378Z,14.80
2018-10-05T06:06:56.806Z,15.63
2018-10-05T06:09:25.255Z,18.03
2018-10-05T06:11:55.543Z,17.27
2018-10-05T06:14:24.315Z,20.40
2018-10-05T06:16:52.753Z,22.83
2018-10-05T06:19:21.404Z,21.73
2018-10-05T06:21:50.849Z,24.63
2018-10-05T06:24:19.177Z,21.60
2018-10-05T06:44:09.106Z,25.53
2018-10-05T06:46:38.951Z,26.00
2018-10-05T06:49:07.881Z,24.80
2018-10-05T06:51:37.114Z,23.93
2018-10-05T06:54:05.826Z,24.67
2018-10-05T06:56:34.244Z,24.67
2018-10-05T06:59:03.609Z,24.50
2018-10-05T07:01:32.204Z,29.50
2018-10-05T07:04:00.563Z,27.17
2018-10-05T07:23:50.414Z,21.17
2018-10-05T07:26:19.053Z,21.77
2018-10-05T07:28:47.616Z,19.43
2018-10-05T07:31:16.106Z,17.27
2018-10-05T07:33:44.694Z,21.17
2018-10-05T07:53:34.269Z,26.57
2018-10-05T07:56:03.561Z,29.83
2018-10-05T07:58:32.134Z,27.80
2018-10-05T08:01:01.829Z,30.10
2018-10-05T08:03:30.589Z,33.43
2018-10-05T08:05:59.314Z,31.17
2018-10-05T08:08:28.561Z,28.53
2018-10-05T08:28:17.760Z,26.37
2018-10-05T08:30:46.441Z,24.60
2018-10-05T08:50:36.471Z,25.13
2018-10-05T08:53:06.064Z,26.30
2018-10-05T09:12:54.901Z,36.03
2018-10-05T09:15:23.407Z,40.30
2018-10-05T09:17:52.080Z,37.87
2018-10-05T09:37:42.261Z,29.10
2018-10-05T09:40:10.799Z,27.77
2018-10-05T09:42:39.478Z,28.10
2018-10-05T10:02:37.110Z,28.33
2018-10-05T10:22:26.188Z,21.63
2018-10-05T10:24:54.921Z,21.97
2018-10-05T10:27:23.479Z,22.80
2018-10-05T10:29:52.433Z,21.07
2018-10-05T10:32:21.081Z,20.10
2018-10-05T10:34:50.372Z,22.17
2018-10-05T10:37:19.775Z,22.47
2018-10-05T10:57:10.103Z,22.07
2018-10-05T10:59:38.537Z,23.13
2018-10-05T11:02:07.091Z,22.37
2018-10-05T11:04:35.977Z,22.37
2018-10-05T11:07:04.558Z,23.57
2018-10-05T11:09:33.115Z,22.47
2018-10-05T11:12:01.976Z,22.60
2018-10-05T11:14:31.730Z,21.17
2018-10-05T11:17:01.173Z,21.93
2018-10-05T11:36:50.650Z,21.97
2018-10-05T11:39:19.121Z,22.33
2018-10-05T11:41:47.642Z,21.17
2018-10-05T11:44:16.197Z,21.37
2018-10-05T11:46:45.469Z,22.00
2018-10-05T11:49:16.035Z,21.57
2018-10-05T11:51:44.710Z,21.30
2018-10-05T11:54:13.226Z,20.87
2018-10-05T11:56:42.458Z,22.03
2018-10-05T11:59:11.377Z,19.47
2018-10-05T12:01:41.074Z,21.73
2018-10-05T12:04:10.994Z,22.83
2018-10-05T12:06:40.712Z,19.10
2018-10-05T12:09:09.812Z,21.03
2018-10-05T12:11:38.910Z,20.37
2018-10-05T12:14:07.690Z,21.13
2018-10-05T12:16:36.251Z,20.97
2018-10-05T12:19:04.848Z,20.00
2018-10-05T12:21:33.680Z,19.57
2018-10-05T12:24:02.234Z,19.30
2018-10-05T12:26:31.402Z,19.53
2018-10-05T12:29:00.125Z,19.53
2018-10-05T12:31:28.610Z,19.03
2018-10-05T12:33:57.710Z,19.60
2018-10-05T12:36:26.556Z,18.13
2018-10-05T12:56:16.187Z,16.83
2018-10-05T12:58:45.154Z,17.73
2018-10-05T13:01:13.694Z,17.13
2018-10-05T13:03:42.114Z,17.63
2018-10-05T13:06:10.666Z,17.53
2018-10-05T13:08:39.235Z,17.77
2018-10-05T13:11:09.094Z,16.97
2018-10-05T13:13:38.757Z,16.23
2018-10-05T13:16:08.212Z,16.23
2018-10-05T13:18:36.885Z,15.20
2018-10-05T13:21:05.712Z,16.43
2018-10-05T13:40:55.674Z,14.70
2018-10-05T14:00:44.397Z,11.10
2018-10-05T14:20:26.598Z,10.53
2018-10-05T14:22:55.275Z,11.00
2018-10-05T14:42:46.035Z,9.07
2018-10-05T14:45:14.830Z,8.73
2018-10-05T14:47:43.327Z,9.60
2018-10-05T14:50:11.765Z,9.83
2018-10-05T14:52:40.408Z,9.37
2018-10-05T14:55:09.599Z,8.03
2018-10-05T15:14:59.502Z,7.53
2018-10-05T15:17:28.095Z,8.30
2018-10-05T15:19:57.972Z,7.10
2018-10-05T15:22:26.700Z,8.30
2018-10-05T15:42:16.730Z,4.43
2018-10-05T15:44:46.931Z,4.10
2018-10-05T16:04:36.533Z,4.30
2018-10-05T16:07:05.885Z,4.43
2018-10-05T16:09:34.457Z,4.03
2018-10-05T16:12:03.604Z,3.90
2018-10-05T16:14:32.333Z,3.93
2018-10-05T16:17:00.968Z,4.33
2018-10-05T16:19:29.593Z,4.80
2018-10-05T16:21:59.912Z,4.33
2018-10-05T16:24:33.474Z,4.80
2018-10-05T16:27:02.695Z,7.47
2018-10-05T16:55:33.570Z,10.50
2018-10-05T16:58:02.138Z,12.80
2018-10-05T17:00:30.626Z,12.17
2018-10-05T17:02:59.830Z,12.87
2018-10-05T17:05:28.569Z,13.37
2018-10-05T17:07:57.827Z,15.90
2018-10-05T17:10:27.412Z,19.30
2018-10-05T17:12:57.054Z,22.93
2018-10-05T17:15:25.551Z,21.77
2018-10-05T17:17:54.349Z,20.50
2018-10-05T17:20:22.823Z,23.33
2018-10-05T17:22:51.590Z,20.73
2018-10-05T17:25:21.155Z,22.10
2018-10-05T17:27:49.995Z,23.47
2018-10-05T17:30:20.507Z,26.23
2018-10-05T17:32:49.458Z,22.27
2018-10-05T17:35:18.221Z,20.67
2018-10-05T17:37:48.017Z,19.00
2018-10-05T17:40:17.903Z,18.93
2018-10-05T17:42:46.379Z,18.17
2018-10-05T17:45:16.010Z,17.93
2018-10-05T17:47:45.421Z,18.63
2018-10-05T17:50:14.512Z,20.10
2018-10-05T17:52:43.651Z,19.33
2018-10-05T17:55:12.875Z,19.23
2018-10-05T17:57:43.625Z,20.60
2018-10-05T18:00:12.582Z,21.03
2018-10-05T18:02:41.095Z,20.27
2018-10-05T18:05:09.533Z,20.70
2018-10-05T18:07:38.187Z,21.47
2018-10-05T18:10:07.708Z,25.70
2018-10-05T18:12:37.463Z,29.20
2018-10-05T18:15:07.329Z,33.70
2018-10-05T18:17:36.303Z,33.33
2018-10-05T18:20:05.896Z,28.87
2018-10-05T18:22:34.990Z,26.27
2018-10-05T18:25:04.229Z,26.67
2018-10-05T18:27:32.762Z,22.53
2018-10-05T18:30:01.478Z,22.77
2018-10-05T18:32:30.294Z,22.03
2018-10-05T18:34:58.785Z,23.03
2018-10-05T18:37:28.026Z,21.67
2018-10-05T18:39:56.639Z,22.70
2018-10-05T18:42:25.692Z,22.53
2018-10-05T18:44:54.424Z,23.33
2018-10-05T18:47:23.046Z,23.17
2018-10-05T18:49:51.649Z,23.23
2018-10-05T18:52:20.231Z,22.07
2018-10-05T18:54:49.349Z,22.50
2018-10-05T19:14:38.969Z,22.17
2018-10-05T19:17:07.827Z,22.47
2018-10-05T19:19:36.337Z,22.13
2018-10-05T19:22:04.961Z,22.07
2018-10-05T19:24:33.593Z,20.20
2018-10-05T19:27:02.366Z,23.20
2018-10-05T19:29:31.081Z,20.17
2018-10-05T19:49:21.401Z,22.13
2018-10-05T19:51:49.982Z,21.53
2018-10-05T19:54:18.549Z,21.53
2018-10-05T19:56:47.249Z,21.97
2018-10-05T19:59:15.943Z,21.67
2018-10-05T20:01:44.483Z,20.07
2018-10-05T20:04:13.421Z,21.17
2018-10-05T20:06:41.963Z,21.23
2018-10-05T20:09:10.405Z,22.43
2018-10-05T20:11:39.526Z,21.10
2018-10-05T20:14:07.945Z,22.60
2018-10-05T20:16:37.390Z,22.77
2018-10-05T20:19:06.342Z,21.87
2018-10-05T20:21:34.810Z,22.53
2018-10-05T20:24:03.205Z,23.97
2018-10-05T20:26:32.591Z,24.40
2018-10-05T20:29:01.323Z,26.13
2018-10-05T20:31:29.814Z,23.10
2018-10-05T20:33:58.470Z,22.63
2018-10-05T20:36:27.015Z,22.73
2018-10-05T20:38:55.459Z,23.37
2018-10-05T20:41:24.242Z,23.53
2018-10-05T20:43:53.457Z,23.50
2018-10-05T21:03:43.386Z,20.23
2018-10-05T21:06:11.870Z,20.20
2018-10-05T21:26:01.959Z,21.37
2018-10-05T21:45:52.362Z,22.07
2018-10-05T21:48:22.555Z,21.03
2018-10-05T21:50:51.021Z,21.30
2018-10-05T21:53:19.518Z,21.20
2018-10-05T21:55:48.314Z,21.50
2018-10-05T21:58:17.283Z,19.43
2018-10-05T22:00:45.721Z,19.90
2018-10-05T22:03:14.524Z,20.27
2018-10-05T22:05:42.987Z,20.03
2018-10-05T22:25:32.716Z,19.57
2018-10-05T22:28:01.835Z,19.17
2018-10-05T22:30:30.306Z,18.67
2018-10-05T22:32:58.935Z,19.17
2018-10-05T22:35:27.635Z,20.30
2018-10-05T22:37:56.510Z,20.90
2018-10-05T22:57:46.585Z,17.30
2018-10-05T23:00:15.061Z,15.57
2018-10-05T23:02:43.526Z,17.27
2018-10-05T23:22:33.736Z,16.70
2018-10-05T23:25:02.176Z,16.37
2018-10-05T23:27:30.674Z,16.27
2018-10-05T23:29:59.216Z,15.43
2018-10-05T23:32:27.769Z,15.50
2018-10-05T23:34:57.393Z,16.70
2018-10-05T23:37:26.142Z,15.70
2018-10-05T23:39:54.597Z,16.30
2018-10-05T23:42:23.004Z,17.23
2018-10-05T23:44:51.796Z,16.53
2018-10-05T23:47:20.839Z,19.60
2018-10-05T23:49:49.390Z,17.30
2018-10-05T23:52:48.154Z,17.43
2018-10-05T23:55:16.663Z,17.57
2018-10-05T23:57:45.180Z,19.03
